Time;durP1;ratioP1;P1;durP2;ratioP2;P2;SDS_P1;SDS_P2;PMS_P1;PMS_P2;Temp;Humidity;BMP_temperature;BMP_pressure;BME280_temperature;BME280_humidity;BME280_pressure;Samples;Min_cycle;Max_cycle;Signal;HPM_P1;HPM_P2
2023/01/21 00:01:09;;;;;;;24.17;18.48;;;;;;;0.23;100.00;102429.69;4704073;30;20111;-63
2023/01/21 00:03:36;;;;;;;26.30;18.95;;;;;;;0.25;100.00;102435.72;4690272;30;20060;-63
2023/01/21 00:06:05;;;;;;;27.80;18.75;;;;;;;0.30;100.00;102448.66;4719868;30;20111;-62
2023/01/21 00:08:32;;;;;;;25.75;19.25;;;;;;;0.27;100.00;102451.66;4720053;30;20053;-63
2023/01/21 00:11:13;;;;;;;26.63;20.02;;;;;;;0.25;100.00;102462.53;4691064;30;20060;-63
2023/01/21 00:13:42;;;;;;;26.23;19.65;;;;;;;0.15;100.00;102453.78;4709210;30;20052;-66
2023/01/21 00:16:11;;;;;;;26.33;19.55;;;;;;;0.15;100.00;102459.13;4721764;30;20061;-65
2023/01/21 00:18:39;;;;;;;27.13;19.50;;;;;;;0.08;100.00;102468.78;4727579;30;20059;-62
2023/01/21 00:21:06;;;;;;;26.00;20.45;;;;;;;0.07;100.00;102472.47;4712401;30;20053;-66
2023/01/21 00:23:34;;;;;;;28.38;20.55;;;;;;;0.15;100.00;102475.22;4714259;30;20106;-62
2023/01/21 00:26:04;;;;;;;25.88;20.48;;;;;;;0.11;100.00;102480.03;4702746;30;20049;-64
2023/01/21 00:28:33;;;;;;;29.27;21.42;;;;;;;0.09;100.00;102470.47;4687239;30;20462;-63
2023/01/21 00:31:02;;;;;;;29.20;21.55;;;;;;;0.14;100.00;102478.88;4720171;30;20080;-64
2023/01/21 00:33:31;;;;;;;28.38;21.17;;;;;;;0.14;100.00;102476.19;4704291;30;20135;-64
2023/01/21 00:36:01;;;;;;;29.85;22.25;;;;;;;0.13;100.00;102475.34;4719329;30;20067;-62
2023/01/21 00:38:29;;;;;;;32.17;22.67;;;;;;;0.15;100.00;102468.00;4704399;30;20063;-62
2023/01/21 00:41:05;;;;;;;27.27;20.08;;;;;;;0.16;100.00;102476.88;4719163;30;20061;-64
2023/01/21 00:43:33;;;;;;;33.88;22.33;;;;;;;0.18;100.00;102482.94;4704388;30;20056;-61
2023/01/21 00:46:01;;;;;;;28.10;21.52;;;;;;;0.15;100.00;102481.41;4703746;30;20140;-64
2023/01/21 00:48:29;;;;;;;32.65;22.88;;;;;;;0.11;100.00;102492.59;4703104;30;20068;-63
2023/01/21 00:50:59;;;;;;;31.45;24.13;;;;;;;0.16;100.00;102492.97;4722944;30;20056;-63
2023/01/21 00:53:29;;;;;;;35.70;23.33;;;;;;;0.09;100.00;102497.25;4731456;30;20127;-63
2023/01/21 00:56:05;;;;;;;31.40;22.85;;;;;;;0.12;100.00;102508.53;4717070;30;20049;-64
2023/01/21 00:58:33;;;;;;;33.13;25.02;;;;;;;0.13;100.00;102512.88;4703478;30;20402;-64
2023/01/21 01:01:19;;;;;;;32.78;24.83;;;;;;;0.06;100.00;102519.03;4701840;30;20057;-64
2023/01/21 01:03:48;;;;;;;32.53;24.03;;;;;;;0.02;100.00;102520.31;4717148;30;20396;-62
2023/01/21 01:06:18;;;;;;;33.08;24.35;;;;;;;-0.04;100.00;102525.31;4718535;30;20338;-62
2023/01/21 01:08:48;;;;;;;35.50;24.77;;;;;;;-0.10;100.00;102536.66;4722793;30;20148;-64
2023/01/21 01:11:17;;;;;;;32.80;24.88;;;;;;;-0.06;100.00;102542.56;4707622;30;20067;-64
2023/01/21 01:13:45;;;;;;;32.53;24.38;;;;;;;-0.05;100.00;102537.03;4718466;30;20084;-65
2023/01/21 01:16:13;;;;;;;37.75;25.55;;;;;;;-0.05;100.00;102547.75;4719006;30;20053;-64
2023/01/21 01:18:42;;;;;;;32.03;23.77;;;;;;;-0.09;100.00;102554.41;4717041;30;20058;-64
2023/01/21 01:21:16;;;;;;;31.58;24.42;;;;;;;-0.10;100.00;102565.28;4714354;30;20049;-62
2023/01/21 01:23:45;;;;;;;36.33;25.90;;;;;;;-0.05;100.00;102571.00;4721554;30;20066;-64
2023/01/21 01:26:14;;;;;;;33.05;25.05;;;;;;;-0.03;100.00;102574.38;4706201;30;20159;-62
2023/01/21 01:28:43;;;;;;;33.90;25.65;;;;;;;0.02;100.00;102587.31;4676786;30;20097;-62
2023/01/21 01:31:15;;;;;;;37.05;26.92;;;;;;;-0.02;100.00;102589.47;4719991;30;20099;-63
2023/01/21 01:33:43;;;;;;;36.05;27.00;;;;;;;-0.09;100.00;102588.41;4722598;30;20060;-64
2023/01/21 01:36:17;;;;;;;37.22;28.17;;;;;;;-0.18;100.00;102587.47;4723033;30;20126;-62
2023/01/21 01:38:45;;;;;;;36.17;26.10;;;;;;;-0.18;100.00;102587.47;4722565;30;20530;-65
2023/01/21 01:41:26;;;;;;;36.83;27.42;;;;;;;-0.13;100.00;102601.25;4721291;30;20083;-63
2023/01/21 01:43:53;;;;;;;39.88;28.35;;;;;;;-0.13;100.00;102601.25;4720200;30;20410;-63
2023/01/21 01:46:22;;;;;;;37.92;27.60;;;;;;;-0.15;100.00;102603.25;4721199;30;20064;-64
2023/01/21 01:48:58;;;;;;;40.83;27.70;;;;;;;-0.11;100.00;102603.78;4706216;30;20057;-63
2023/01/21 01:51:50;;;;;;;36.33;27.65;;;;;;;0.00;100.00;102608.94;4691672;30;20053;-63
2023/01/21 01:54:22;;;;;;;35.08;26.48;;;;;;;-0.05;100.00;102609.38;4704266;30;20057;-63
2023/01/21 01:56:54;;;;;;;37.80;27.08;;;;;;;-0.17;100.00;102607.06;4715976;30;20057;-64
2023/01/21 01:59:22;;;;;;;35.72;26.02;;;;;;;-0.20;100.00;102616.25;4724060;30;20053;-61
2023/01/21 02:01:50;;;;;;;35.50;25.80;;;;;;;-0.21;100.00;102614.59;4721715;30;20055;-63
2023/01/21 02:04:21;;;;;;;37.95;27.20;;;;;;;-0.31;100.00;102620.00;4728773;30;20060;-63
2023/01/21 02:06:49;;;;;;;36.67;26.27;;;;;;;-0.35;100.00;102625.81;4689001;30;20136;-62
2023/01/21 02:09:17;;;;;;;40.70;28.80;;;;;;;-0.34;100.00;102608.75;4716886;30;20064;-62
2023/01/21 02:11:45;;;;;;;39.53;27.55;;;;;;;-0.36;100.00;102629.47;4705299;30;20510;-64
2023/01/21 02:14:12;;;;;;;37.60;27.92;;;;;;;-0.31;100.00;102630.72;4719283;30;20144;-64
2023/01/21 02:17:01;;;;;;;39.22;26.58;;;;;;;-0.30;100.00;102629.72;4704373;30;20045;-63
2023/01/21 02:20:06;;;;;;;40.72;28.20;;;;;;;-0.22;100.00;102640.53;4719211;30;20422;-63
2023/01/21 02:22:51;;;;;;;38.70;27.92;;;;;;;-0.18;100.00;102643.75;4716406;30;20452;-64
2023/01/21 02:25:22;;;;;;;39.40;28.13;;;;;;;-0.19;100.00;102647.44;4707778;30;20064;-64
2023/01/21 02:28:02;;;;;;;40.05;28.10;;;;;;;-0.32;100.00;102655.81;4720281;30;20053;-63
2023/01/21 02:31:07;;;;;;;39.17;27.85;;;;;;;-0.33;100.00;102658.66;4719535;30;20071;-62
2023/01/21 02:33:48;;;;;;;38.25;26.63;;;;;;;-0.25;100.00;102661.41;4718154;30;20083;-62
2023/01/21 02:36:26;;;;;;;36.53;26.15;;;;;;;-0.24;100.00;102663.94;4718101;30;20053;-64
2023/01/21 02:39:05;;;;;;;39.47;28.25;;;;;;;-0.22;100.00;102661.97;4717320;30;20045;-61
2023/01/21 02:42:11;;;;;;;40.55;27.40;;;;;;;-0.16;100.00;102665.03;4703621;30;20405;-62
2023/01/21 02:45:10;;;;;;;40.13;27.92;;;;;;;-0.22;100.00;102666.47;4671520;30;20087;-64
2023/01/21 02:47:46;;;;;;;40.67;29.13;;;;;;;-0.18;100.00;102667.84;4695553;30;20419;-63
2023/01/21 02:50:22;;;;;;;42.70;28.27;;;;;;;-0.17;100.00;102677.56;4688701;30;20508;-63
2023/01/21 02:53:01;;;;;;;44.35;30.25;;;;;;;-0.26;100.00;102681.16;4717096;30;20131;-65
2023/01/21 02:55:33;;;;;;;43.42;29.50;;;;;;;-0.28;100.00;102683.97;4716996;30;20053;-68
2023/01/21 02:58:04;;;;;;;41.20;29.30;;;;;;;-0.31;100.00;102686.97;4686903;30;20054;-63
2023/01/21 03:01:09;;;;;;;41.17;28.85;;;;;;;-0.31;100.00;102686.13;4705247;30;20132;-63
2023/01/21 03:03:52;;;;;;;40.05;29.17;;;;;;;-0.19;100.00;102690.28;4702545;30;20068;-62
2023/01/21 03:06:54;;;;;;;43.05;28.90;;;;;;;-0.29;100.00;102690.34;4702080;30;20117;-62
2023/01/21 03:09:29;;;;;;;38.78;26.58;;;;;;;-0.38;100.00;102693.91;4718780;30;20049;-61
2023/01/21 03:12:07;;;;;;;37.42;27.30;;;;;;;-0.38;100.00;102690.41;4688233;30;20463;-64
2023/01/21 03:17:54;;;;;;;36.58;27.17;;;;;;;-0.38;100.00;102695.75;4718398;30;20066;-62
2023/01/21 03:20:30;;;;;;;36.97;27.25;;;;;;;-0.41;100.00;102704.06;4718433;30;20411;-68
2023/01/21 03:23:02;;;;;;;35.87;26.17;;;;;;;-0.43;100.00;102714.94;4698768;30;20389;-62
2023/01/21 03:25:32;;;;;;;34.83;26.27;;;;;;;-0.41;100.00;102704.06;4716712;30;20345;-64
2023/01/21 03:28:04;;;;;;;36.67;27.10;;;;;;;-0.43;100.00;102712.28;4689219;30;20087;-63
2023/01/21 03:30:33;;;;;;;38.50;26.38;;;;;;;-0.44;100.00;102716.75;4689669;30;20073;-63
2023/01/21 03:33:01;;;;;;;37.80;26.60;;;;;;;-0.54;100.00;102710.63;4703784;30;20511;-61
2023/01/21 03:35:35;;;;;;;34.58;25.50;;;;;;;-0.56;100.00;102717.09;4702581;30;20049;-63
2023/01/21 03:38:25;;;;;;;34.35;26.40;;;;;;;-0.56;100.00;102720.63;4717894;30;20091;-62
2023/01/21 03:41:02;;;;;;;35.00;25.20;;;;;;;-0.61;100.00;102720.22;4719553;30;20115;-62
2023/01/21 03:43:30;;;;;;;33.47;24.98;;;;;;;-0.57;100.00;102729.66;4706830;30;20084;-63
2023/01/21 03:46:24;;;;;;;36.45;25.27;;;;;;;-0.59;100.00;102730.81;4704493;30;20119;-63
2023/01/21 03:48:56;;;;;;;32.10;24.35;;;;;;;-0.59;100.00;102738.81;4706687;30;20083;-64
2023/01/21 03:51:37;;;;;;;33.00;24.35;;;;;;;-0.59;100.00;102730.81;4719493;30;20133;-63
2023/01/21 03:54:04;;;;;;;34.53;25.02;;;;;;;-0.62;100.00;102733.78;4717862;30;20513;-64
2023/01/21 03:56:32;;;;;;;32.05;23.48;;;;;;;-0.65;100.00;102729.53;4718683;30;20498;-62
2023/01/21 03:59:01;;;;;;;32.83;24.92;;;;;;;-0.72;100.00;102737.31;4718552;30;20056;-64
2023/01/21 04:01:28;;;;;;;32.78;24.70;;;;;;;-0.80;100.00;102741.72;4702876;30;20502;-63
2023/01/21 04:03:56;;;;;;;31.40;23.92;;;;;;;-0.77;100.00;102741.41;4703315;30;20067;-64
2023/01/21 04:06:24;;;;;;;34.40;24.38;;;;;;;-0.77;100.00;102738.72;4718371;30;20084;-63
2023/01/21 04:08:51;;;;;;;32.97;23.58;;;;;;;-0.75;100.00;102744.78;4689186;30;20080;-64
2023/01/21 04:11:19;;;;;;;32.97;22.88;;;;;;;-0.66;100.00;102738.56;4718723;30;20154;-64
2023/01/21 04:13:47;;;;;;;30.40;22.15;;;;;;;-0.67;100.00;102752.94;4703179;30;20063;-64
2023/01/21 04:16:14;;;;;;;30.08;22.95;;;;;;;-0.61;100.00;102746.16;4715887;30;20061;-64
2023/01/21 04:18:42;;;;;;;32.25;23.95;;;;;;;-0.58;100.00;102752.03;4701274;30;20136;-63
2023/01/21 04:21:10;;;;;;;34.80;26.35;;;;;;;-0.59;100.00;102755.72;4716696;30;20065;-63
2023/01/21 04:23:37;;;;;;;31.90;23.50;;;;;;;-0.63;100.00;102748.97;4714250;30;20487;-63
2023/01/21 04:26:06;;;;;;;32.17;23.45;;;;;;;-0.68;100.00;102757.44;4700871;30;20057;-63
2023/01/21 04:28:34;;;;;;;33.63;24.10;;;;;;;-0.74;100.00;102765.22;4714753;30;20084;-68
2023/01/21 04:31:02;;;;;;;34.03;25.17;;;;;;;-0.71;100.00;102771.13;4685042;30;20489;-64
2023/01/21 04:33:30;;;;;;;34.38;23.58;;;;;;;-0.66;100.00;102768.00;4717219;30;20139;-63
2023/01/21 04:35:59;;;;;;;35.75;25.80;;;;;;;-0.68;100.00;102768.16;4698623;30;20057;-66
2023/01/21 04:38:27;;;;;;;32.00;23.52;;;;;;;-0.78;100.00;102761.16;4685632;30;20059;-64
2023/01/21 04:40:55;;;;;;;31.90;23.77;;;;;;;-0.81;100.00;102762.28;4712409;30;20057;-64
2023/01/21 04:43:23;;;;;;;33.53;25.25;;;;;;;-0.86;100.00;102757.38;4699163;30;20061;-65
2023/01/21 04:45:50;;;;;;;35.72;25.17;;;;;;;-0.86;100.00;102757.38;4716923;30;20515;-64
2023/01/21 04:48:18;;;;;;;35.47;26.65;;;;;;;-0.92;100.00;102765.94;4723115;30;20052;-64
2023/01/21 04:50:46;;;;;;;37.30;27.52;;;;;;;-0.94;100.00;102761.72;4722690;30;20083;-68
2023/01/21 04:53:14;;;;;;;37.15;27.70;;;;;;;-0.93;100.00;102769.63;4705551;30;20415;-64
2023/01/21 04:55:42;;;;;;;36.70;27.88;;;;;;;-0.91;100.00;102770.34;4706091;30;20045;-66
2023/01/21 04:58:09;;;;;;;38.03;28.23;;;;;;;-0.96;100.00;102775.28;4722050;30;20080;-65
2023/01/21 05:00:37;;;;;;;36.33;26.50;;;;;;;-1.11;100.00;102780.22;4722874;30;20060;-63
2023/01/21 05:03:05;;;;;;;34.95;25.25;;;;;;;-1.08;100.00;102781.78;4722974;30;20547;-64
2023/01/21 05:05:32;;;;;;;36.08;26.73;;;;;;;-1.00;100.00;102787.25;4723623;30;20069;-62
2023/01/21 05:08:00;;;;;;;34.72;26.38;;;;;;;-0.94;100.00;102789.34;4720825;30;20053;-62
2023/01/21 05:10:28;;;;;;;34.35;25.50;;;;;;;-0.87;100.00;102797.63;4719089;30;20049;-62
2023/01/21 05:12:55;;;;;;;37.28;27.08;;;;;;;-0.86;100.00;102802.03;4710423;30;20095;-64
2023/01/21 05:15:23;;;;;;;35.63;25.92;;;;;;;-0.91;100.00;102796.25;4719531;30;20499;-64
2023/01/21 05:17:51;;;;;;;36.47;27.23;;;;;;;-0.89;100.00;102803.16;4705751;30;20049;-64
2023/01/21 05:20:19;;;;;;;36.80;27.40;;;;;;;-0.90;100.00;102811.31;4721831;30;20404;-65
2023/01/21 05:22:47;;;;;;;38.50;27.38;;;;;;;-0.96;100.00;102810.06;4706981;30;20067;-64
2023/01/21 05:25:15;;;;;;;36.50;28.15;;;;;;;-0.94;100.00;102815.25;4722098;30;20057;-63
2023/01/21 05:27:43;;;;;;;34.15;25.60;;;;;;;-0.89;100.00;102808.50;4723355;30;20138;-61
2023/01/21 05:30:11;;;;;;;36.53;25.75;;;;;;;-0.93;100.00;102809.75;4722015;30;20462;-62
2023/01/21 05:32:39;;;;;;;34.33;25.25;;;;;;;-0.95;100.00;102814.41;4723445;30;20060;-62
2023/01/21 05:35:07;;;;;;;35.78;26.45;;;;;;;-1.00;100.00;102819.34;4723299;30;20088;-63
2023/01/21 05:37:36;;;;;;;35.00;26.02;;;;;;;-1.03;100.00;102816.97;4722505;30;20053;-63
2023/01/21 05:40:04;;;;;;;36.63;27.17;;;;;;;-1.06;100.00;102817.22;4723991;30;20059;-64
2023/01/21 05:42:32;;;;;;;33.85;24.92;;;;;;;-1.12;100.00;102817.81;4725998;30;20474;-61
2023/01/21 05:45:00;;;;;;;36.50;26.02;;;;;;;-1.09;100.00;102826.38;4735988;30;20061;-63
2023/01/21 05:47:28;;;;;;;36.22;26.30;;;;;;;-1.04;100.00;102831.31;4719032;30;20115;-62
2023/01/21 05:49:55;;;;;;;36.17;27.02;;;;;;;-1.07;100.00;102826.25;4718808;30;20065;-64
2023/01/21 05:52:23;;;;;;;37.17;27.58;;;;;;;-1.03;100.00;102827.66;4713266;30;20048;-63
2023/01/21 05:54:50;;;;;;;35.67;25.85;;;;;;;-0.99;100.00;102834.41;4718019;30;20100;-64
2023/01/21 05:57:28;;;;;;;35.85;25.35;;;;;;;-0.93;100.00;102833.00;4731283;30;20115;-66
2023/01/21 05:59:56;;;;;;;39.83;27.80;;;;;;;-0.97;100.00;102837.78;4716092;30;20052;-62
2023/01/21 06:02:25;;;;;;;37.92;25.55;;;;;;;-0.91;100.00;102842.59;4727493;30;20140;-63
2023/01/21 06:04:52;;;;;;;32.28;24.02;;;;;;;-0.99;100.00;102842.44;4706450;30;20462;-63
2023/01/21 06:07:20;;;;;;;35.35;25.63;;;;;;;-1.04;100.00;102844.69;4721102;30;20052;-63
2023/01/21 06:09:48;;;;;;;35.47;26.05;;;;;;;-1.13;100.00;102837.50;4719819;30;20049;-64
2023/01/21 06:12:15;;;;;;;35.95;26.80;;;;;;;-1.16;100.00;102848.50;4718649;30;20149;-63
2023/01/21 06:14:43;;;;;;;35.53;27.13;;;;;;;-1.11;100.00;102840.88;4720394;30;20091;-64
2023/01/21 06:17:11;;;;;;;36.28;27.77;;;;;;;-1.11;100.00;102851.59;4720237;30;20143;-63
2023/01/21 06:19:38;;;;;;;31.88;25.13;;;;;;;-1.14;100.00;102852.72;4703219;30;20141;-65
2023/01/21 06:22:06;;;;;;;37.38;27.60;;;;;;;-1.17;100.00;102863.69;4704791;30;20571;-64
2023/01/21 06:24:34;;;;;;;37.15;28.55;;;;;;;-1.15;100.00;102861.75;4719889;30;20052;-63
2023/01/21 06:27:01;;;;;;;36.13;26.73;;;;;;;-1.12;100.00;102865.97;4720416;30;20061;-64
2023/01/21 06:29:29;;;;;;;35.05;25.85;;;;;;;-1.06;100.00;102870.72;4719559;30;20064;-64
2023/01/21 06:31:57;;;;;;;38.20;27.15;;;;;;;-1.08;100.00;102872.72;4718566;30;20111;-62
2023/01/21 06:34:24;;;;;;;36.20;27.05;;;;;;;-1.14;100.00;102874.13;4719814;30;20091;-66
2023/01/21 06:36:52;;;;;;;36.42;26.17;;;;;;;-1.17;100.00;102878.91;4717333;30;20135;-67
2023/01/21 06:39:20;;;;;;;36.05;26.85;;;;;;;-1.12;100.00;102873.97;4719946;30;20045;-64
2023/01/21 06:41:47;;;;;;;36.33;26.88;;;;;;;-1.04;100.00;102884.81;4720444;30;20053;-66
2023/01/21 06:44:15;;;;;;;37.65;27.05;;;;;;;-1.00;100.00;102885.41;4723706;30;20061;-66
2023/01/21 06:46:44;;;;;;;35.95;26.58;;;;;;;-1.07;100.00;102887.78;4719370;30;20053;-67
2023/01/21 06:49:26;;;;;;;36.42;27.92;;;;;;;-1.12;100.00;102898.06;4720366;30;20053;-65
2023/01/21 06:51:55;;;;;;;40.63;29.58;;;;;;;-1.26;100.00;102906.47;4719853;30;20061;-66
2023/01/21 06:54:23;;;;;;;37.55;28.77;;;;;;;-1.36;100.00;102907.31;4703694;30;20053;-67
2023/01/21 06:56:51;;;;;;;36.47;27.83;;;;;;;-1.35;100.00;102909.03;4719052;30;20088;-65
2023/01/21 06:59:19;;;;;;;37.28;28.15;;;;;;;-1.42;100.00;102915.91;4702798;30;20063;-66
2023/01/21 07:01:46;;;;;;;35.85;27.10;;;;;;;-1.43;100.00;102916.84;4718659;30;20045;-67
2023/01/21 07:04:14;;;;;;;37.40;27.58;;;;;;;-1.40;100.00;102916.56;4718221;30;20061;-66
2023/01/21 07:06:42;;;;;;;38.65;28.98;;;;;;;-1.36;100.00;102925.19;4688205;30;20079;-67
2023/01/21 07:09:12;;;;;;;39.72;28.85;;;;;;;-1.33;100.00;102933.75;4719617;30;20056;-65
2023/01/21 07:11:41;;;;;;;44.35;28.70;;;;;;;-1.27;100.00;102931.50;4719618;30;20466;-64
2023/01/21 07:14:09;;;;;;;40.40;31.42;;;;;;;-1.34;100.00;102937.44;4717262;30;20133;-64
2023/01/21 07:16:36;;;;;;;38.88;27.98;;;;;;;-1.30;100.00;102941.53;4703920;30;20052;-65
2023/01/21 07:19:04;;;;;;;43.67;31.83;;;;;;;-1.27;100.00;102947.56;4717721;30;20059;-65
2023/01/21 07:21:33;;;;;;;40.10;28.20;;;;;;;-1.33;100.00;102946.28;4689459;30;20064;-65
2023/01/21 07:24:01;;;;;;;39.03;27.98;;;;;;;-1.32;100.00;102948.00;4714770;30;20137;-66
2023/01/21 07:26:28;;;;;;;50.03;33.75;;;;;;;-1.33;100.00;102944.47;4714727;30;20057;-64
2023/01/21 07:28:56;;;;;;;40.90;29.73;;;;;;;-1.27;100.00;102950.25;4718382;30;20045;-63
2023/01/21 07:31:26;;;;;;;45.40;33.67;;;;;;;-1.18;100.00;102955.63;4719202;30;20566;-65
2023/01/21 07:33:54;;;;;;;46.50;33.15;;;;;;;-1.28;100.00;102968.13;4715802;30;20054;-64
2023/01/21 07:36:22;;;;;;;42.10;31.20;;;;;;;-1.27;100.00;102958.25;4675054;30;20060;-63
2023/01/21 07:38:49;;;;;;;43.60;32.28;;;;;;;-1.40;100.00;102972.72;4718580;30;20057;-63
2023/01/21 07:41:17;;;;;;;43.58;33.20;;;;;;;-1.43;100.00;102967.66;4703000;30;20491;-67
2023/01/21 07:43:48;;;;;;;42.55;32.20;;;;;;;-1.36;100.00;102984.00;4702848;30;20081;-65
2023/01/21 07:46:17;;;;;;;41.30;30.85;;;;;;;-1.32;100.00;102982.78;4717937;30;20056;-65
2023/01/21 07:48:50;;;;;;;43.70;32.13;;;;;;;-1.38;100.00;102985.97;4672132;30;20054;-65
2023/01/21 07:51:19;;;;;;;42.08;31.95;;;;;;;-1.42;100.00;102982.75;4686056;30;20415;-66
2023/01/21 07:53:47;;;;;;;44.63;31.85;;;;;;;-1.33;100.00;102995.25;4718166;30;20530;-65
2023/01/21 07:56:16;;;;;;;42.15;31.88;;;;;;;-1.27;100.00;102995.69;4717392;30;20238;-66
2023/01/21 07:58:45;;;;;;;41.15;29.63;;;;;;;-1.21;100.00;103001.34;4705375;30;20135;-64
2023/01/21 08:01:13;;;;;;;39.05;29.15;;;;;;;-1.30;100.00;103008.38;4674504;30;20495;-63
2023/01/21 08:03:41;;;;;;;42.78;28.98;;;;;;;-1.40;100.00;103012.84;4718869;30;20057;-63
2023/01/21 08:06:09;;;;;;;46.70;34.95;;;;;;;-1.42;100.00;103019.28;4718751;30;20085;-63
2023/01/21 08:08:36;;;;;;;47.38;32.72;;;;;;;-1.49;100.00;103029.72;4718858;30;20044;-65
2023/01/21 08:11:04;;;;;;;46.60;33.97;;;;;;;-1.49;100.00;103040.41;4716973;30;20140;-64
2023/01/21 08:13:32;;;;;;;45.55;33.08;;;;;;;-1.48;100.00;103055.44;4718606;30;20107;-63
2023/01/21 08:16:00;;;;;;;45.25;32.17;;;;;;;-1.45;100.00;103049.81;4716765;30;20425;-64
2023/01/21 08:18:28;;;;;;;42.13;31.70;;;;;;;-1.32;100.00;103063.84;4718313;30;20096;-63
2023/01/21 08:20:56;;;;;;;48.00;33.97;;;;;;;-1.37;100.00;103060.72;4714131;30;20446;-66
2023/01/21 08:23:25;;;;;;;47.05;34.92;;;;;;;-1.46;100.00;103061.50;4716652;30;20053;-63
2023/01/21 08:25:54;;;;;;;46.97;32.78;;;;;;;-1.57;100.00;103065.09;4716646;30;20053;-64
2023/01/21 08:28:22;;;;;;;44.13;32.10;;;;;;;-1.58;100.00;103078.63;4716775;30;20075;-63
2023/01/21 08:30:49;;;;;;;43.60;28.75;;;;;;;-1.50;100.00;103070.78;4716786;30;20154;-62
2023/01/21 08:33:17;;;;;;;42.30;29.98;;;;;;;-1.43;100.00;103077.28;4718110;30;20136;-64
2023/01/21 08:35:45;;;;;;;44.08;31.65;;;;;;;-1.38;100.00;103079.56;4717697;30;20083;-66
2023/01/21 08:38:12;;;;;;;40.47;27.10;;;;;;;-1.34;100.00;103075.66;4718623;30;20505;-64
2023/01/21 08:40:40;;;;;;;49.17;34.58;;;;;;;-1.30;100.00;103093.09;4718173;30;20077;-63
2023/01/21 08:43:08;;;;;;;51.28;34.67;;;;;;;-1.38;100.00;103080.41;4702246;30;20057;-64
2023/01/21 08:45:36;;;;;;;44.72;28.92;;;;;;;-1.28;100.00;103091.13;4716633;30;20085;-65
2023/01/21 08:48:04;;;;;;;45.97;31.60;;;;;;;-1.21;100.00;103092.28;4702690;30;20522;-65
2023/01/21 08:50:31;;;;;;;45.47;32.28;;;;;;;-1.21;100.00;103092.28;4718606;30;20140;-65
2023/01/21 08:52:59;;;;;;;47.15;32.33;;;;;;;-1.18;100.00;103091.19;4720047;30;20127;-64
2023/01/21 08:55:27;;;;;;;49.53;34.15;;;;;;;-1.14;100.00;103092.63;4716800;30;20132;-67
2023/01/21 08:57:55;;;;;;;47.35;30.60;;;;;;;-1.17;100.00;103099.09;4717498;30;20076;-64
2023/01/21 09:00:23;;;;;;;47.63;33.28;;;;;;;-1.20;100.00;103101.16;4718298;30;20387;-64
2023/01/21 09:02:51;;;;;;;51.97;34.00;;;;;;;-1.24;100.00;103100.59;4716891;30;20057;-64
2023/01/21 09:05:19;;;;;;;50.83;35.47;;;;;;;-1.22;100.00;103103.16;4702794;30;20147;-65
2023/01/21 09:07:47;;;;;;;48.28;31.85;;;;;;;-1.38;100.00;103101.78;4702694;30;20427;-64
2023/01/21 09:10:59;;;;;;;47.13;32.88;;;;;;;-1.23;100.00;103104.13;4702352;30;20057;-66
2023/01/21 09:13:08;;;;;;;49.17;33.00;;;;;;;-1.06;100.00;103114.19;4717549;30;20053;-66
2023/01/21 09:15:40;;;;;;;50.25;35.35;;;;;;;-1.17;100.00;103119.63;4716860;30;20115;-64
2023/01/21 09:18:08;;;;;;;53.17;34.58;;;;;;;-1.33;100.00;103109.41;4703499;30;20130;-63
2023/01/21 09:20:36;;;;;;;50.75;33.58;;;;;;;-1.27;100.00;103105.34;4719785;30;20489;-64
2023/01/21 09:23:23;;;;;;;47.58;32.38;;;;;;;-1.18;100.00;103108.09;4703561;30;20061;-64
2023/01/21 09:26:14;;;;;;;49.92;34.17;;;;;;;-1.10;100.00;103116.28;4720471;30;20107;-64
2023/01/21 09:28:43;;;;;;;48.45;34.25;;;;;;;-1.15;100.00;103115.00;4714877;30;20049;-64
2023/01/21 09:31:14;;;;;;;48.25;32.00;;;;;;;-1.11;100.00;103119.09;4716993;30;20061;-65
2023/01/21 09:33:44;;;;;;;46.67;31.63;;;;;;;-1.03;100.00;103116.59;4705823;30;20063;-64
2023/01/21 09:36:15;;;;;;;44.60;31.02;;;;;;;-1.05;100.00;103128.44;4730456;30;20116;-61
2023/01/21 09:38:44;;;;;;;54.90;35.15;;;;;;;-1.07;100.00;103128.56;4719878;30;20137;-62
2023/01/21 09:41:34;;;;;;;52.85;35.72;;;;;;;-1.13;100.00;103137.09;4698108;30;20070;-62
2023/01/21 09:44:11;;;;;;;53.08;35.92;;;;;;;-1.19;100.00;103143.84;4722722;30;20145;-66
2023/01/21 09:46:57;;;;;;;50.45;34.38;;;;;;;-1.15;100.00;103147.09;4706161;30;20049;-65
2023/01/21 09:49:40;;;;;;;47.78;33.22;;;;;;;-1.18;100.00;103155.38;4705859;30;20049;-64
2023/01/21 09:52:44;;;;;;;50.70;32.90;;;;;;;-1.12;100.00;103160.22;4705853;30;20053;-65
2023/01/21 09:55:15;;;;;;;48.22;32.83;;;;;;;-1.07;100.00;103163.31;4703617;30;20569;-65
2023/01/21 09:58:11;;;;;;;47.55;31.08;;;;;;;-1.02;100.00;103166.44;4719968;30;20059;-66
2023/01/21 10:00:51;;;;;;;49.72;34.45;;;;;;;-1.04;100.00;103168.41;4691102;30;20057;-64
2023/01/21 10:03:31;;;;;;;49.65;33.28;;;;;;;-1.01;100.00;103176.19;4719962;30;20113;-63
2023/01/21 10:06:22;;;;;;;48.90;34.22;;;;;;;-0.94;100.00;103168.44;4705294;30;20140;-63
2023/01/21 10:08:57;;;;;;;50.05;33.00;;;;;;;-0.92;100.00;103164.66;4702789;30;20144;-64
2023/01/21 10:11:27;;;;;;;52.33;34.95;;;;;;;-0.89;100.00;103171.56;4705062;30;20084;-64
2023/01/21 10:14:19;;;;;;;52.15;35.00;;;;;;;-0.86;100.00;103174.00;4721026;30;20132;-64
2023/01/21 10:16:53;;;;;;;48.42;34.50;;;;;;;-0.78;100.00;103170.66;4720575;30;20052;-63
2023/01/21 10:19:28;;;;;;;50.35;35.03;;;;;;;-0.71;100.00;103163.75;4720808;30;20458;-63
2023/01/21 10:22:00;;;;;;;49.88;34.28;;;;;;;-0.63;100.00;103165.75;4690828;30;20137;-63
2023/01/21 10:24:36;;;;;;;50.35;34.92;;;;;;;-0.59;100.00;103161.84;4690378;30;20053;-64
2023/01/21 10:27:04;;;;;;;49.42;33.97;;;;;;;-0.56;100.00;103167.75;4690742;30;20057;-63
2023/01/21 10:29:36;;;;;;;53.15;35.22;;;;;;;-0.52;100.00;103169.19;4709261;30;20100;-65
2023/01/21 10:32:07;;;;;;;48.55;33.67;;;;;;;-0.48;100.00;103167.06;4684452;30;20401;-65
2023/01/21 10:34:55;;;;;;;49.10;33.53;;;;;;;-0.43;100.00;103165.69;4686012;30;20546;-64
2023/01/21 10:37:29;;;;;;;50.50;34.75;;;;;;;-0.36;100.00;103171.34;4684392;30;20066;-64
2023/01/21 10:40:06;;;;;;;50.95;35.00;;;;;;;-0.31;100.00;103155.72;4685475;30;20072;-64
2023/01/21 10:42:49;;;;;;;45.42;32.65;;;;;;;-0.25;100.00;103155.13;4684175;30;20575;-64
2023/01/21 10:45:20;;;;;;;47.40;32.45;;;;;;;-0.18;100.00;103150.06;4683692;30;20058;-65
2023/01/21 10:48:13;;;;;;;51.47;35.13;;;;;;;-0.16;100.00;103157.97;4684232;30;20460;-64
2023/01/21 10:50:55;;;;;;;49.58;34.60;;;;;;;-0.24;100.00;103162.22;4685436;30;20062;-62
2023/01/21 10:53:42;;;;;;;55.40;36.97;;;;;;;-0.28;100.00;103162.63;4684258;30;20058;-62
2023/01/21 10:56:29;;;;;;;50.60;34.38;;;;;;;-0.26;100.00;103166.84;4684332;30;20061;-63
2023/01/21 10:59:07;;;;;;;48.38;34.85;;;;;;;-0.26;100.00;103163.34;4684175;30;20054;-64
2023/01/21 11:01:44;;;;;;;53.75;35.58;;;;;;;-0.26;100.00;103163.34;4698184;30;20507;-62
2023/01/21 11:04:21;;;;;;;45.70;33.00;;;;;;;-0.25;100.00;103162.34;4698317;30;20141;-63
2023/01/21 11:07:00;;;;;;;45.13;32.67;;;;;;;-0.18;100.00;103154.59;4684910;30;20116;-62
2023/01/21 11:09:37;;;;;;;45.35;32.78;;;;;;;-0.14;100.00;103145.31;4684059;30;20110;-62
2023/01/21 11:12:04;;;;;;;45.72;32.70;;;;;;;-0.11;100.00;103156.56;4683881;30;20427;-62
2023/01/21 11:14:33;;;;;;;47.17;33.75;;;;;;;-0.12;100.00;103154.88;4688002;30;20057;-64
2023/01/21 11:17:01;;;;;;;48.97;32.58;;;;;;;-0.13;100.00;103158.53;4683737;30;20064;-64
2023/01/21 11:19:30;;;;;;;46.42;32.33;;;;;;;-0.10;100.00;103152.06;4655296;30;20054;-62
2023/01/21 11:22:17;;;;;;;45.30;32.47;;;;;;;-0.09;100.00;103159.13;4467556;30;10000687;-65
2023/01/21 11:24:50;;;;;;;44.72;31.33;;;;;;;-0.09;100.00;103151.91;4694450;30;20583;-66
2023/01/21 11:27:38;;;;;;;44.72;30.88;;;;;;;-0.05;100.00;103142.63;4681607;30;20143;-65